CheckWX is a tool to help pilots better visualize weather data.  It is not intended as a substitute for an official pre-flight weather briefing.

12:32:15 UTC

KFSD TAF
Joe Foss Field Airport
Sioux Falls, South Dakota, USA
KFSD 051737Z 0518/0618 16013G23KT P6SM FEW100 FM060100 16010KT P6SM BKN200 FM061200 16008KT 4SM BR SCT005 BKN010 FM061700 17010KT P6SM BKN025

Apr-5@
18:00 UTC

Apr-5 @ 18:00 UTC

Apr-6@
01:00 UTC

Apr-6 @ 01:00 UTC

TAF KFSD 051737Z 0518/0618 16013G23KT P6SM FEW100

Expired

Wind
  • 160° at 13 KTS
  • {Gusting to 23 KTS
Cloud Levels
  • Few at 10,000' AGL

Apr-6@
01:00 UTC

Apr-6 @ 01:00 UTC

Apr-6@
12:00 UTC

Apr-6 @ 12:00 UTC

FM060100 16010KT P6SM BKN200

Expired

Wind
  • 160° at 10 KTS
Cloud Levels
  • Broken at 20,000' AGL

Apr-6@
12:00 UTC

Apr-6 @ 12:00 UTC

Apr-6@
17:00 UTC

Apr-6 @ 17:00 UTC

FM061200 16008KT 4SM BR SCT005 BKN010

From

From Standard forecast or significant change

Wind
  • 160° at 8 KTS
Conditions
Mist
Cloud Levels
  • Scattered at 500' AGL
  • Broken at 1,000' AGL

Apr-6@
17:00 UTC

Apr-6 @ 17:00 UTC

Apr-6@
18:00 UTC

Apr-6 @ 18:00 UTC

FM061700 17010KT P6SM BKN025

From

From Standard forecast or significant change

Wind
  • 170° at 10 KTS
Cloud Levels
  • Broken at 2,500' AGL